Time;durP1;ratioP1;P1;durP2;ratioP2;P2;SDS_P1;SDS_P2;PMS_P1;PMS_P2;Temp;Humidity;BMP_temperature;BMP_pressure;BME280_temperature;BME280_humidity;BME280_pressure;Samples;Min_cycle;Max_cycle;Signal;HPM_P1;HPM_P2
2021/07/16 00:01:31;;;;;;;8.17;4.00;;;;;;;28.58;41.41;100477.75;128359;1087;64121;-85
2021/07/16 00:04:08;;;;;;;6.37;3.83;;;;;;;28.58;41.49;100475.03;128384;1085;64237;-84
2021/07/16 00:06:35;;;;;;;6.93;3.67;;;;;;;28.58;41.22;100482.34;128373;1086;64214;-83
2021/07/16 00:09:06;;;;;;;5.47;3.70;;;;;;;28.59;41.48;100486.77;128372;1085;64197;-83
2021/07/16 00:11:33;;;;;;;5.77;3.67;;;;;;;28.58;41.34;100487.77;128374;1086;64212;-84
2021/07/16 00:14:08;;;;;;;7.03;3.43;;;;;;;28.58;41.31;100491.33;128418;1086;64043;-84
2021/07/16 00:16:34;;;;;;;7.03;3.80;;;;;;;28.59;41.56;100495.75;128429;1086;64134;-83
2021/07/16 00:19:03;;;;;;;7.47;4.00;;;;;;;28.59;41.36;100497.63;128047;1085;63038;-84
2021/07/16 00:21:33;;;;;;;7.25;3.53;;;;;;;28.59;41.24;100494.91;128380;1087;64124;-84
2021/07/16 00:24:08;;;;;;;6.13;3.63;;;;;;;28.59;41.48;100500.34;128369;1087;64115;-84
2021/07/16 00:26:35;;;;;;;7.00;4.27;;;;;;;28.58;41.41;100499.47;128390;1086;64096;-83
2021/07/16 00:29:04;;;;;;;7.93;3.77;;;;;;;28.59;41.43;100503.05;128335;1087;64147;-84
2021/07/16 00:31:54;;;;;;;8.30;3.80;;;;;;;28.58;41.57;100510.33;128380;1085;63958;-83
2021/07/16 00:34:21;;;;;;;6.73;3.70;;;;;;;28.58;41.69;100507.61;128377;1087;64143;-84
2021/07/16 00:37:00;;;;;;;6.88;3.73;;;;;;;28.58;41.68;100502.19;128380;1087;64138;-83
2021/07/16 00:39:27;;;;;;;6.08;3.83;;;;;;;28.58;41.59;100504.06;128379;1087;64176;-83
2021/07/16 00:41:54;;;;;;;5.90;3.70;;;;;;;28.58;41.29;100515.77;128354;1087;63971;-84
2021/07/16 00:44:20;;;;;;;7.10;3.87;;;;;;;28.58;41.64;100504.91;128367;1086;64939;-83
2021/07/16 00:46:57;;;;;;;7.20;4.05;;;;;;;28.57;41.82;100505.94;128381;1085;64379;-83
2021/07/16 00:49:23;;;;;;;8.10;3.90;;;;;;;28.58;41.44;100501.34;128385;1087;64243;-84
2021/07/16 00:51:53;;;;;;;6.47;3.90;;;;;;;28.58;41.62;100487.77;128357;1087;64192;-83
2021/07/16 00:54:20;;;;;;;6.17;3.83;;;;;;;28.57;41.69;100488.78;128384;1087;65081;-83
2021/07/16 00:57:09;;;;;;;6.50;3.70;;;;;;;28.56;41.74;100490.66;128374;1087;62924;-84
2021/07/16 00:59:45;;;;;;;7.27;4.20;;;;;;;28.57;41.57;100486.94;128350;1087;64169;-83
2021/07/16 01:02:35;;;;;;;7.80;4.03;;;;;;;28.56;41.57;100477.08;128337;1086;64369;-84
2021/07/16 01:05:05;;;;;;;7.20;3.90;;;;;;;28.56;41.83;100476.21;127908;1087;64144;-84
2021/07/16 01:07:32;;;;;;;5.50;3.67;;;;;;;28.57;41.58;100486.06;127900;1087;65131;-84
2021/07/16 01:10:02;;;;;;;7.30;4.10;;;;;;;28.56;41.95;100477.08;127916;1087;64159;-84
2021/07/16 01:12:29;;;;;;;6.53;3.77;;;;;;;28.56;41.95;100474.37;127903;1087;64190;-84
2021/07/16 01:14:55;;;;;;;7.03;3.77;;;;;;;28.56;41.95;100482.52;127951;1087;64137;-84
2021/07/16 01:17:24;;;;;;;8.13;4.27;;;;;;;28.56;41.98;100479.80;127873;1086;64220;-84
2021/07/16 01:20:00;;;;;;;6.83;4.00;;;;;;;28.56;41.72;100468.94;127910;1087;64763;-84
2021/07/16 01:22:28;;;;;;;7.30;3.83;;;;;;;28.55;41.85;100467.23;127890;1087;64144;-84
2021/07/16 01:24:59;;;;;;;9.07;4.40;;;;;;;28.56;41.93;100470.78;127934;1087;64109;-84
2021/07/16 01:27:25;;;;;;;6.97;3.90;;;;;;;28.56;41.93;100473.50;127955;1087;64275;-85
2021/07/16 01:29:58;;;;;;;7.50;3.90;;;;;;;28.56;41.94;100476.21;127875;1086;64118;-84
2021/07/16 01:32:38;;;;;;;6.87;3.93;;;;;;;28.55;41.95;100483.52;127899;1087;64141;-82
2021/07/16 01:35:21;;;;;;;7.90;4.00;;;;;;;28.54;41.85;100489.96;127932;1086;64144;-84
2021/07/16 01:37:57;;;;;;;10.17;4.00;;;;;;;28.54;42.00;100478.27;127888;1087;64129;-83
2021/07/16 01:40:35;;;;;;;6.80;3.73;;;;;;;28.54;42.05;100475.55;127901;1087;64137;-84
2021/07/16 01:43:09;;;;;;;7.93;4.00;;;;;;;28.55;42.03;100479.97;128188;1087;64278;-84
2021/07/16 01:45:52;;;;;;;7.40;3.90;;;;;;;28.55;42.25;100479.97;128412;1085;64137;-84
2021/07/16 01:48:18;;;;;;;7.90;3.97;;;;;;;28.55;42.36;100488.95;128386;1084;64309;-84
2021/07/16 01:50:46;;;;;;;8.70;4.00;;;;;;;28.54;42.04;100495.39;128336;1087;64160;-84
2021/07/16 01:53:13;;;;;;;7.60;3.80;;;;;;;28.55;42.13;100491.67;128374;1087;64160;-83
2021/07/16 01:55:40;;;;;;;8.67;3.70;;;;;;;28.54;42.38;100498.11;128029;1085;64274;-84
2021/07/16 01:58:09;;;;;;;9.30;4.20;;;;;;;28.54;42.10;100489.96;128370;1086;64117;-84
2021/07/16 02:00:38;;;;;;;6.93;3.98;;;;;;;28.54;42.28;100497.27;128365;1087;64130;-85
2021/07/16 02:03:08;;;;;;;7.63;4.20;;;;;;;28.55;42.54;100497.09;128401;1087;64134;-84
2021/07/16 02:05:36;;;;;;;6.40;3.90;;;;;;;28.54;42.51;100495.39;128376;1087;64133;-84
2021/07/16 02:08:26;;;;;;;8.03;4.03;;;;;;;28.54;42.36;100498.11;128400;1085;64173;-85
2021/07/16 02:10:56;;;;;;;10.47;4.20;;;;;;;28.54;42.49;100499.98;128382;1087;64246;-85
2021/07/16 02:13:26;;;;;;;7.47;4.17;;;;;;;28.53;42.38;100499.14;128389;1087;64138;-84
2021/07/16 02:15:54;;;;;;;7.23;4.00;;;;;;;28.54;42.60;100508.13;128370;1087;64259;-84
2021/07/16 02:18:23;;;;;;;6.40;4.10;;;;;;;28.53;42.64;100507.30;128012;1087;64156;-84
2021/07/16 02:21:05;;;;;;;7.23;4.07;;;;;;;28.53;42.81;100507.30;128350;1086;64291;-84
2021/07/16 02:23:32;;;;;;;8.13;4.30;;;;;;;28.53;42.73;100509.14;128354;1087;64163;-84
2021/07/16 02:26:01;;;;;;;8.27;4.00;;;;;;;28.53;42.81;100501.86;128365;1086;64117;-85
2021/07/16 02:28:29;;;;;;;6.47;3.73;;;;;;;28.52;42.63;100508.30;128363;1087;64127;-84
2021/07/16 02:31:06;;;;;;;6.30;3.60;;;;;;;28.53;42.63;100509.14;128381;1087;64126;-85
2021/07/16 02:33:32;;;;;;;6.23;4.00;;;;;;;28.53;42.67;100506.42;127992;1085;64138;-83
2021/07/16 02:35:59;;;;;;;9.47;4.00;;;;;;;28.53;42.85;100500.99;128387;1087;64345;-84
2021/07/16 02:38:25;;;;;;;8.30;3.87;;;;;;;28.53;42.70;100503.70;128368;1086;64126;-83
2021/07/16 02:41:02;;;;;;;7.87;4.03;;;;;;;28.53;42.94;100507.30;128360;1087;64329;-84
2021/07/16 02:43:29;;;;;;;7.73;4.10;;;;;;;28.53;43.00;100506.42;128366;1087;64294;-84
2021/07/16 02:45:58;;;;;;;7.60;3.97;;;;;;;28.52;42.59;100508.30;128382;1087;64156;-84
2021/07/16 02:48:27;;;;;;;10.47;4.20;;;;;;;28.53;43.09;100514.57;128365;1087;64400;-84
2021/07/16 02:50:53;;;;;;;7.73;3.80;;;;;;;28.52;43.14;100502.88;128358;1085;64215;-84
2021/07/16 02:53:20;;;;;;;8.37;4.13;;;;;;;28.51;43.09;100505.76;128371;1087;65411;-83
2021/07/16 02:55:52;;;;;;;7.23;4.00;;;;;;;28.51;42.96;100517.45;128420;1087;64311;-84
2021/07/16 02:58:19;;;;;;;8.00;4.10;;;;;;;28.52;43.11;100521.88;128369;1087;64030;-84
2021/07/16 03:00:55;;;;;;;7.20;4.10;;;;;;;28.52;43.25;100527.31;128364;1087;64134;-84
2021/07/16 03:03:33;;;;;;;7.20;4.10;;;;;;;28.52;42.96;100534.58;128378;1086;64121;-83
2021/07/16 03:05:59;;;;;;;8.40;3.93;;;;;;;28.51;43.02;100531.03;128389;1086;64233;-84
2021/07/16 03:08:27;;;;;;;6.80;3.67;;;;;;;28.52;43.20;100537.30;128358;1087;63943;-85
2021/07/16 03:10:54;;;;;;;7.37;4.23;;;;;;;28.52;43.44;100534.58;128391;1087;64154;-84
2021/07/16 03:13:20;;;;;;;8.47;4.50;;;;;;;28.52;43.39;100531.87;128385;1087;64378;-84
2021/07/16 03:15:47;;;;;;;6.53;3.83;;;;;;;28.52;43.50;100534.58;128375;1087;64140;-84
2021/07/16 03:18:24;;;;;;;6.83;4.20;;;;;;;28.51;43.27;100530.19;128397;1087;64316;-84
2021/07/16 03:20:50;;;;;;;7.67;4.07;;;;;;;28.52;43.26;100526.44;128029;1086;64137;-84
2021/07/16 03:23:36;;;;;;;7.83;4.00;;;;;;;28.52;43.14;100523.72;128365;1086;64598;-83
2021/07/16 03:26:03;;;;;;;7.57;4.47;;;;;;;28.52;43.35;100527.31;128399;1085;64256;-84
2021/07/16 03:28:29;;;;;;;8.50;4.37;;;;;;;28.51;43.60;100525.60;128372;1085;64150;-84
2021/07/16 03:31:01;;;;;;;6.77;4.03;;;;;;;28.52;43.64;100542.73;128360;1087;64211;-84
2021/07/16 03:33:30;;;;;;;8.57;4.30;;;;;;;28.51;43.66;100541.89;128352;1087;64127;-84
2021/07/16 03:36:04;;;;;;;9.65;4.55;;;;;;;28.52;43.79;100545.44;128386;1087;64405;-84
2021/07/16 03:38:33;;;;;;;9.20;4.53;;;;;;;28.53;43.77;100552.58;128365;1085;64128;-84
2021/07/16 03:41:07;;;;;;;8.27;4.50;;;;;;;28.52;43.54;100540.02;128353;1087;64182;-84
2021/07/16 03:43:42;;;;;;;6.43;4.30;;;;;;;28.51;43.60;100541.05;128387;1087;64143;-83
2021/07/16 03:46:28;;;;;;;7.03;4.23;;;;;;;28.52;43.75;100542.73;128389;1087;64032;-85
2021/07/16 03:48:55;;;;;;;8.60;4.80;;;;;;;28.52;43.71;100534.58;128367;1086;64207;-86
2021/07/16 03:51:27;;;;;;;9.40;5.10;;;;;;;28.51;43.86;100539.18;128358;1087;64076;-86
2021/07/16 03:53:57;;;;;;;7.30;4.77;;;;;;;28.51;44.04;100536.46;128412;1087;64192;-86
2021/07/16 03:56:24;;;;;;;11.55;5.50;;;;;;;28.51;43.96;100528.31;128424;1086;64256;-86
2021/07/16 03:58:50;;;;;;;9.60;5.33;;;;;;;28.51;43.88;100520.17;128366;1087;64102;-85
2021/07/16 04:01:19;;;;;;;11.07;6.00;;;;;;;28.51;44.07;100522.89;128384;1085;63948;-86
2021/07/16 04:03:45;;;;;;;18.50;7.77;;;;;;;28.50;44.38;100514.91;128388;1087;64073;-85
2021/07/16 04:06:12;;;;;;;17.27;7.63;;;;;;;28.48;44.71;100508.78;128418;1086;64555;-85
2021/07/16 04:08:40;;;;;;;15.37;7.77;;;;;;;28.46;44.95;100510.83;128391;1087;64297;-86
2021/07/16 04:11:06;;;;;;;23.17;8.80;;;;;;;28.43;45.35;100517.44;128416;1086;64182;-85
2021/07/16 04:13:32;;;;;;;18.53;8.13;;;;;;;28.40;45.43;100528.64;128384;1087;64874;-84
2021/07/16 04:15:59;;;;;;;16.60;7.73;;;;;;;28.36;45.69;100528.11;128404;1087;64141;-85
2021/07/16 04:18:25;;;;;;;15.20;8.53;;;;;;;28.33;46.01;100530.29;128375;1086;64207;-84
2021/07/16 04:20:54;;;;;;;15.30;8.47;;;;;;;28.30;45.97;100544.20;128350;1087;64371;-86
2021/07/16 04:23:21;;;;;;;19.60;7.77;;;;;;;28.29;46.62;100558.78;128346;1087;64138;-85
2021/07/16 04:25:48;;;;;;;21.30;7.80;;;;;;;28.26;46.53;100559.95;128390;1086;64166;-85
2021/07/16 04:28:14;;;;;;;16.63;7.87;;;;;;;28.25;46.55;100560.95;128402;1086;64079;-85
2021/07/16 04:30:41;;;;;;;18.10;7.77;;;;;;;28.24;47.08;100564.71;128391;1087;64131;-84
2021/07/16 04:33:08;;;;;;;15.50;7.47;;;;;;;28.22;47.21;100567.56;128355;1087;64297;-85
2021/07/16 04:35:35;;;;;;;16.47;7.90;;;;;;;28.18;47.06;100566.19;128378;1087;64316;-84
2021/07/16 04:38:02;;;;;;;18.20;7.80;;;;;;;28.17;47.36;100575.36;128415;1087;64220;-85
2021/07/16 04:40:32;;;;;;;14.07;8.07;;;;;;;28.14;47.78;100575.67;128315;1087;64166;-85
2021/07/16 04:43:04;;;;;;;14.10;9.10;;;;;;;28.12;47.81;100574.13;128377;1087;64300;-84
2021/07/16 04:45:31;;;;;;;17.37;9.87;;;;;;;28.11;48.01;100570.58;128396;1087;64150;-84
2021/07/16 04:47:58;;;;;;;13.37;9.03;;;;;;;28.10;48.05;100566.16;128383;1087;64137;-85
2021/07/16 04:50:24;;;;;;;17.40;8.60;;;;;;;28.11;48.23;100575.16;128382;1087;64099;-85
2021/07/16 04:52:58;;;;;;;13.47;8.23;;;;;;;28.13;48.22;100583.98;128337;1086;62509;-85
2021/07/16 04:55:27;;;;;;;15.63;8.23;;;;;;;28.12;48.32;100580.42;128307;1087;64236;-86
2021/07/16 04:57:53;;;;;;;14.00;7.83;;;;;;;28.12;48.30;100579.55;127946;1087;64100;-85
2021/07/16 05:00:20;;;;;;;12.27;7.67;;;;;;;28.14;48.16;100572.95;128361;1085;64134;-85
2021/07/16 05:02:50;;;;;;;12.63;8.20;;;;;;;28.16;48.68;100576.38;128379;1087;64253;-84
2021/07/16 05:05:17;;;;;;;16.70;8.03;;;;;;;28.16;48.58;100581.80;128388;1086;63958;-85
2021/07/16 05:07:46;;;;;;;17.10;7.53;;;;;;;28.17;48.80;100583.51;128363;1087;64230;-85
2021/07/16 05:10:16;;;;;;;17.47;7.40;;;;;;;28.17;48.77;100580.80;128343;1087;64425;-85
2021/07/16 05:12:45;;;;;;;16.43;7.10;;;;;;;28.13;48.39;100573.13;128392;1085;64182;-85
2021/07/16 05:15:14;;;;;;;12.07;7.23;;;;;;;28.09;48.77;100565.31;128349;1086;64138;-85
2021/07/16 05:17:42;;;;;;;12.93;7.53;;;;;;;28.11;49.01;100567.86;128356;1087;64147;-85
2021/07/16 05:20:09;;;;;;;16.50;7.13;;;;;;;28.11;48.89;100564.31;127990;1087;63946;-85
2021/07/16 05:22:44;;;;;;;12.83;6.90;;;;;;;28.12;48.97;100561.43;128274;1087;64221;-85
2021/07/16 05:25:11;;;;;;;14.27;6.90;;;;;;;28.14;48.80;100556.67;128255;1086;64370;-84
2021/07/16 05:27:39;;;;;;;16.27;7.53;;;;;;;28.13;48.83;100554.13;128286;1086;64562;-85
2021/07/16 05:30:18;;;;;;;18.90;7.40;;;;;;;28.11;49.04;100553.45;128309;1086;62224;-86
2021/07/16 05:32:45;;;;;;;15.77;6.77;;;;;;;28.09;48.84;100556.30;128328;1087;64188;-85
2021/07/16 05:35:11;;;;;;;12.90;6.50;;;;;;;28.05;49.09;100546.79;128268;1087;64308;-85
2021/07/16 05:37:38;;;;;;;14.83;6.77;;;;;;;27.99;49.41;100539.28;128226;1086;64251;-84
2021/07/16 05:40:05;;;;;;;13.00;6.70;;;;;;;27.96;49.25;100534.16;128293;1086;64141;-85
2021/07/16 05:42:33;;;;;;;15.07;6.80;;;;;;;27.93;49.21;100538.08;128237;1086;64128;-85
2021/07/16 05:45:11;;;;;;;;;;;;;;;;;;;;;
2021/07/16 05:47:46;;;;;;;12.23;6.97;;;;;;;27.97;49.35;100546.72;128291;1084;64637;-85
2021/07/16 05:50:13;;;;;;;13.70;6.93;;;;;;;27.96;49.37;100547.73;128292;1085;64194;-85
2021/07/16 05:52:39;;;;;;;14.37;6.90;;;;;;;27.98;49.23;100541.13;128307;1086;64134;-85
2021/07/16 05:55:06;;;;;;;10.20;7.17;;;;;;;28.01;49.47;100546.28;128302;1085;64237;-86
2021/07/16 05:57:32;;;;;;;14.53;6.50;;;;;;;28.03;49.17;100549.67;128359;1087;64185;-85
2021/07/16 05:59:59;;;;;;;15.65;6.85;;;;;;;28.04;49.47;100545.95;128227;1087;64300;-85
2021/07/16 06:02:26;;;;;;;13.37;6.97;;;;;;;28.04;49.36;100554.09;128318;1087;64134;-85
2021/07/16 06:04:52;;;;;;;13.35;7.10;;;;;;;28.08;49.12;100554.63;128059;1086;63952;-86
2021/07/16 06:07:19;;;;;;;11.10;7.20;;;;;;;28.11;49.13;100543.44;127972;1085;64163;-85
2021/07/16 06:09:45;;;;;;;18.10;7.40;;;;;;;28.13;49.26;100546.86;127623;1086;64214;-85
2021/07/16 06:12:16;;;;;;;15.63;6.80;;;;;;;28.17;49.21;100553.66;127618;1085;64141;-84
2021/07/16 06:14:43;;;;;;;13.13;6.90;;;;;;;28.17;49.10;100550.94;127727;1087;64195;-85
2021/07/16 06:17:09;;;;;;;15.23;7.40;;;;;;;28.20;49.06;100553.32;128028;1087;64282;-85
2021/07/16 06:20:02;;;;;;;12.47;6.97;;;;;;;28.22;48.92;100547.73;127853;1085;64160;-85
2021/07/16 06:22:28;;;;;;;12.97;7.20;;;;;;;28.24;49.12;100530.27;127787;1090;64295;-86
2021/07/16 06:24:54;;;;;;;13.60;6.87;;;;;;;28.24;48.69;100532.14;127881;1090;64106;-85
2021/07/16 06:27:21;;;;;;;11.97;6.80;;;;;;;28.24;48.77;100530.27;127871;1090;64115;-86
2021/07/16 06:29:47;;;;;;;11.23;7.00;;;;;;;28.24;49.03;100540.28;127876;1089;64151;-85
2021/07/16 06:32:13;;;;;;;14.20;7.10;;;;;;;28.21;49.04;100544.17;127845;1090;64390;-85
2021/07/16 06:34:40;;;;;;;12.40;7.30;;;;;;;28.22;48.98;100545.02;127877;1090;64169;-86
2021/07/16 06:37:07;;;;;;;14.30;7.45;;;;;;;28.21;48.58;100546.89;127912;1089;64175;-85
2021/07/16 06:39:34;;;;;;;13.10;7.03;;;;;;;28.22;48.83;100558.58;127863;1090;64477;-85
2021/07/16 06:42:02;;;;;;;18.60;7.97;;;;;;;28.22;48.76;100553.16;127851;1088;64249;-85
2021/07/16 06:44:32;;;;;;;11.63;6.90;;;;;;;28.21;48.51;100556.88;127826;1087;64141;-85
2021/07/16 06:47:01;;;;;;;13.43;7.33;;;;;;;28.20;48.79;100547.89;127668;1087;64198;-85
2021/07/16 06:49:28;;;;;;;15.13;7.27;;;;;;;28.20;48.64;100556.03;127842;1087;64243;-85
2021/07/16 06:51:56;;;;;;;13.37;6.90;;;;;;;28.18;48.69;100565.34;127682;1087;64188;-85
2021/07/16 06:54:24;;;;;;;16.97;7.80;;;;;;;28.18;48.64;100563.47;127870;1087;64035;-84
2021/07/16 06:56:50;;;;;;;9.63;6.50;;;;;;;28.18;48.62;100562.63;127862;1087;64359;-85
2021/07/16 06:59:17;;;;;;;13.93;7.07;;;;;;;28.19;48.69;100567.05;127846;1087;64288;-85
2021/07/16 07:01:43;;;;;;;14.47;7.17;;;;;;;28.18;48.49;100562.63;128235;1087;64217;-85
2021/07/16 07:04:09;;;;;;;14.17;7.20;;;;;;;28.20;48.28;100563.34;128246;1086;64139;-86
2021/07/16 07:06:36;;;;;;;15.83;7.00;;;;;;;28.21;48.64;100563.17;128307;1087;64121;-83
2021/07/16 07:09:02;;;;;;;14.33;7.43;;;;;;;28.21;48.71;100555.03;128269;1087;64096;-83
2021/07/16 07:11:28;;;;;;;13.93;7.07;;;;;;;28.21;48.66;100546.02;128236;1086;63670;-83
2021/07/16 07:13:55;;;;;;;13.50;7.57;;;;;;;28.22;48.36;100542.30;128298;1087;64131;-84
2021/07/16 07:16:21;;;;;;;12.43;7.43;;;;;;;28.21;48.33;100546.89;128214;1085;64185;-83
2021/07/16 07:18:48;;;;;;;12.30;7.37;;;;;;;28.23;48.36;100533.98;128245;1087;64195;-85
2021/07/16 07:21:15;;;;;;;19.33;7.43;;;;;;;28.24;48.50;100537.57;128323;1086;64329;-84
2021/07/16 07:23:42;;;;;;;12.63;7.30;;;;;;;28.22;48.36;100529.56;128337;1086;64240;-84
2021/07/16 07:26:09;;;;;;;13.43;7.10;;;;;;;28.22;48.11;100528.73;128296;1086;62257;-84
2021/07/16 07:28:35;;;;;;;14.13;7.00;;;;;;;28.20;48.16;100542.47;128258;1087;64268;-84
2021/07/16 07:31:02;;;;;;;16.13;6.87;;;;;;;28.21;48.28;100530.60;128310;1087;64099;-84
2021/07/16 07:33:28;;;;;;;13.37;7.07;;;;;;;28.21;48.23;100544.17;128304;1085;64233;-84
2021/07/16 07:35:56;;;;;;;14.30;7.03;;;;;;;28.21;48.37;100533.31;128316;1087;64141;-85
2021/07/16 07:38:31;;;;;;;14.23;6.90;;;;;;;28.20;48.36;100544.34;128316;1086;64113;-84
2021/07/16 07:40:59;;;;;;;12.57;7.00;;;;;;;28.19;48.21;100540.76;128204;1085;64377;-82
2021/07/16 07:43:26;;;;;;;17.67;7.50;;;;;;;28.20;48.18;100536.20;128218;1087;64147;-84
2021/07/16 07:45:52;;;;;;;14.03;7.20;;;;;;;28.19;48.26;100531.78;127947;1087;63391;-85
2021/07/16 07:48:18;;;;;;;14.00;7.17;;;;;;;28.20;48.37;100526.18;128240;1087;64179;-85
2021/07/16 07:50:44;;;;;;;12.30;6.80;;;;;;;28.21;48.22;100527.89;128192;1085;64183;-85
2021/07/16 07:53:11;;;;;;;20.87;7.10;;;;;;;28.21;48.01;100527.89;128281;1087;64054;-83
2021/07/16 07:55:37;;;;;;;10.77;6.40;;;;;;;28.23;48.22;100533.15;128290;1086;63026;-83
2021/07/16 07:58:05;;;;;;;15.60;7.27;;;;;;;28.24;48.13;100527.55;128036;1086;64291;-83
2021/07/16 08:00:33;;;;;;;13.27;7.60;;;;;;;28.25;48.17;100531.10;128002;1085;64285;-83
2021/07/16 08:02:59;;;;;;;11.53;7.57;;;;;;;28.26;48.38;100522.83;128305;1087;62427;-84
2021/07/16 08:05:26;;;;;;;10.70;6.73;;;;;;;28.28;48.23;100525.38;128391;1086;61962;-83
2021/07/16 08:07:52;;;;;;;14.70;7.07;;;;;;;28.29;48.24;100523.49;128262;1086;62725;-84
2021/07/16 08:10:19;;;;;;;11.57;6.80;;;;;;;28.30;48.50;100525.20;128221;1085;64198;-83
2021/07/16 08:12:45;;;;;;;15.77;7.27;;;;;;;28.31;48.34;100532.34;128364;1085;64105;-83
2021/07/16 08:15:12;;;;;;;18.83;6.77;;;;;;;28.31;47.99;100530.45;128274;1085;62374;-84
2021/07/16 08:17:39;;;;;;;11.93;6.47;;;;;;;28.32;48.07;100526.73;128276;1086;64291;-84
2021/07/16 08:20:08;;;;;;;12.07;6.87;;;;;;;28.32;48.11;100531.30;128293;1085;64084;-82
2021/07/16 08:22:35;;;;;;;12.70;6.70;;;;;;;28.33;48.06;100531.16;129161;1086;61884;-83
2021/07/16 08:25:02;;;;;;;14.83;7.03;;;;;;;28.35;48.44;100526.40;128265;1087;64211;-83
2021/07/16 08:27:28;;;;;;;13.60;6.60;;;;;;;28.36;48.31;100522.67;127909;1085;63704;-83
2021/07/16 08:29:55;;;;;;;14.30;6.93;;;;;;;28.39;48.38;100524.22;128265;1086;64224;-83
2021/07/16 08:32:21;;;;;;;12.63;6.83;;;;;;;28.40;48.34;100517.78;128338;1087;64365;-83
2021/07/16 08:34:49;;;;;;;15.67;6.17;;;;;;;28.41;48.32;100514.02;128324;1086;63951;-83
2021/07/16 08:37:15;;;;;;;13.63;7.10;;;;;;;28.42;48.36;100522.00;128278;1087;64683;-83
2021/07/16 08:39:42;;;;;;;11.63;6.37;;;;;;;28.43;48.19;100520.16;128352;1086;64253;-84
2021/07/16 08:42:08;;;;;;;18.17;6.93;;;;;;;28.43;48.27;100523.70;128321;1087;64149;-84
2021/07/16 08:44:37;;;;;;;14.50;7.10;;;;;;;28.43;48.07;100520.99;128343;1087;64233;-83
2021/07/16 08:47:04;;;;;;;13.67;6.50;;;;;;;28.43;48.18;100520.16;128266;1085;64131;-83
2021/07/16 08:49:30;;;;;;;13.93;6.67;;;;;;;28.43;48.22;100518.27;128237;1085;64140;-83
2021/07/16 08:51:56;;;;;;;14.23;6.57;;;;;;;28.41;47.68;100512.18;128312;1085;64271;-84
2021/07/16 08:54:23;;;;;;;10.67;6.60;;;;;;;28.40;48.03;100520.49;128298;1085;64122;-85
2021/07/16 08:56:50;;;;;;;12.63;6.43;;;;;;;28.40;47.89;100515.06;127923;1086;64622;-84
2021/07/16 08:59:20;;;;;;;14.10;6.57;;;;;;;28.40;47.83;100512.34;128313;1085;64298;-84
2021/07/16 09:01:46;;;;;;;12.77;6.43;;;;;;;28.41;47.99;100514.89;128280;1087;64009;-85
2021/07/16 09:04:13;;;;;;;9.83;6.37;;;;;;;28.40;47.78;100510.47;128292;1085;64111;-85
2021/07/16 09:06:54;;;;;;;9.23;6.53;;;;;;;28.39;47.72;100502.50;128309;1087;64208;-84
2021/07/16 09:09:24;;;;;;;10.90;6.37;;;;;;;28.37;47.60;100499.95;128267;1085;64221;-85
2021/07/16 09:11:56;;;;;;;12.73;6.67;;;;;;;28.36;47.56;100503.67;128365;1087;64182;-84
2021/07/16 09:14:28;;;;;;;13.40;6.70;;;;;;;28.38;47.40;100498.91;128297;1087;64147;-85
2021/07/16 09:17:16;;;;;;;11.80;6.80;;;;;;;28.38;47.08;100496.20;128364;1085;62797;-85
2021/07/16 09:19:47;;;;;;;13.00;7.13;;;;;;;28.40;46.92;100501.49;128608;1087;62195;-85
2021/07/16 09:22:17;;;;;;;12.77;6.70;;;;;;;28.42;46.80;100499.44;128770;1085;62127;-85
2021/07/16 09:24:51;;;;;;;13.80;6.20;;;;;;;28.43;46.92;100488.41;128245;1086;64139;-84
2021/07/16 09:27:37;;;;;;;14.80;5.73;;;;;;;28.46;46.92;100483.68;128184;1086;64179;-84
2021/07/16 09:30:23;;;;;;;9.77;5.63;;;;;;;28.48;46.55;100487.93;128280;1085;64172;-84
2021/07/16 09:32:58;;;;;;;9.80;5.93;;;;;;;28.51;46.62;100484.03;128394;1086;64074;-85
2021/07/16 09:35:38;;;;;;;13.30;5.93;;;;;;;28.51;46.73;100484.88;128383;1086;64150;-85
2021/07/16 09:38:15;;;;;;;13.73;5.63;;;;;;;28.54;46.57;100480.98;128361;1086;64129;-85
2021/07/16 09:40:46;;;;;;;8.40;5.90;;;;;;;28.54;46.81;100487.24;128363;1085;64263;-84
2021/07/16 09:43:24;;;;;;;12.70;5.77;;;;;;;28.56;46.62;100481.64;128244;1085;64767;-85
2021/07/16 09:46:12;;;;;;;10.63;5.57;;;;;;;28.57;46.61;100484.22;128312;1087;63955;-84
2021/07/16 09:48:39;;;;;;;9.57;6.23;;;;;;;28.58;46.64;100476.91;127860;1087;64170;-85
2021/07/16 09:51:27;;;;;;;10.30;6.10;;;;;;;28.59;46.45;100479.45;127859;1087;64376;-85
2021/07/16 09:54:01;;;;;;;9.33;5.60;;;;;;;28.60;46.68;100477.61;127812;1086;64675;-85
2021/07/16 09:56:29;;;;;;;8.57;5.63;;;;;;;28.61;46.44;100484.71;128010;1087;64904;-84
2021/07/16 09:59:17;;;;;;;12.07;5.43;;;;;;;28.60;46.29;100475.73;127871;1087;64163;-84
2021/07/16 10:02:16;;;;;;;9.43;5.60;;;;;;;28.62;46.72;100477.44;127765;1087;64376;-84
2021/07/16 10:04:43;;;;;;;10.77;5.63;;;;;;;28.63;46.22;100476.39;127772;1087;64151;-83
2021/07/16 10:07:10;;;;;;;8.97;5.30;;;;;;;28.63;46.61;100476.39;127759;1087;64160;-83
2021/07/16 10:09:38;;;;;;;8.60;4.60;;;;;;;28.62;45.97;100478.27;127759;1087;64259;-82
2021/07/16 10:12:05;;;;;;;12.93;5.35;;;;;;;28.63;45.93;100474.55;127777;1087;62433;-83
2021/07/16 10:14:31;;;;;;;10.17;5.90;;;;;;;28.64;45.91;100472.66;127879;1087;64304;-83
2021/07/16 10:16:57;;;;;;;10.90;5.00;;;;;;;28.65;45.80;100471.69;127789;1087;64128;-83
2021/07/16 10:19:27;;;;;;;14.80;4.43;;;;;;;28.64;45.45;100470.85;127757;1087;64399;-83
2021/07/16 10:21:54;;;;;;;9.53;5.30;;;;;;;28.63;44.96;100463.69;127784;1087;64526;-83
2021/07/16 10:24:23;;;;;;;7.70;4.70;;;;;;;28.64;44.18;100468.13;127888;1087;64255;-83
2021/07/16 10:26:50;;;;;;;9.40;5.00;;;;;;;28.63;45.10;100471.83;128178;1087;64540;-84
2021/07/16 10:29:42;;;;;;;8.80;4.80;;;;;;;28.65;44.92;100455.39;128291;1087;65356;-84
2021/07/16 10:32:09;;;;;;;7.93;5.10;;;;;;;28.64;45.18;100451.84;128292;1087;64172;-85
2021/07/16 10:34:39;;;;;;;10.73;5.20;;;;;;;28.65;45.28;100449.97;128305;1086;63920;-84
2021/07/16 10:37:07;;;;;;;9.47;5.37;;;;;;;28.65;45.08;100441.81;128328;1086;64183;-84
2021/07/16 10:39:52;;;;;;;9.28;4.90;;;;;;;28.65;45.15;100444.53;128363;1086;64147;-85
2021/07/16 10:42:48;;;;;;;8.87;4.90;;;;;;;28.65;45.21;100449.97;128366;1087;64748;-86
2021/07/16 10:45:15;;;;;;;11.20;5.03;;;;;;;28.64;45.05;100450.94;127938;1087;65360;-86
2021/07/16 10:47:51;;;;;;;8.03;4.83;;;;;;;28.64;44.70;100446.41;127867;1087;63961;-85
2021/07/16 10:50:27;;;;;;;8.00;5.00;;;;;;;28.65;44.78;100441.81;127889;1087;64402;-85
2021/07/16 10:53:02;;;;;;;9.70;4.93;;;;;;;28.64;44.83;100440.08;127904;1087;64331;-85
2021/07/16 10:55:55;;;;;;;10.70;4.70;;;;;;;28.64;44.65;100434.65;127879;1087;64282;-87
2021/07/16 10:58:25;;;;;;;5.97;4.47;;;;;;;28.64;44.61;100434.65;127573;1089;64157;-85
2021/07/16 11:01:02;;;;;;;9.70;5.00;;;;;;;28.64;44.60;100426.50;127645;1090;64157;-86
2021/07/16 11:03:52;;;;;;;9.90;4.80;;;;;;;28.63;44.66;100422.95;127687;1088;62153;-86
2021/07/16 11:06:52;;;;;;;8.10;5.03;;;;;;;28.64;44.52;100426.50;127642;1090;64214;-85
2021/07/16 11:09:33;;;;;;;9.13;4.40;;;;;;;28.64;44.38;100429.22;127558;1089;64651;-86
2021/07/16 11:12:29;;;;;;;7.60;4.67;;;;;;;28.63;44.43;100419.36;127623;1089;65107;-85
2021/07/16 11:15:05;;;;;;;8.60;4.50;;;;;;;28.63;44.16;100420.23;127643;1090;64141;-82
2021/07/16 11:17:35;;;;;;;7.30;4.50;;;;;;;28.64;44.20;100416.54;127632;1090;64320;-85
2021/07/16 11:20:31;;;;;;;9.27;4.57;;;;;;;28.64;43.67;100421.07;127631;1090;63955;-85
2021/07/16 11:23:19;;;;;;;7.40;4.33;;;;;;;28.64;44.07;100418.35;127648;1090;64279;-86
2021/07/16 11:25:54;;;;;;;7.87;5.00;;;;;;;28.64;44.15;100402.96;127688;1090;64206;-86
2021/07/16 11:28:21;;;;;;;7.40;4.30;;;;;;;28.65;43.95;100409.23;127680;1090;64175;-85
2021/07/16 11:30:59;;;;;;;11.30;4.60;;;;;;;28.65;43.86;100406.52;127680;1093;64195;-85